Time;durP1;ratioP1;P1;durP2;ratioP2;P2;SDS_P1;SDS_P2;PMS_P1;PMS_P2;Temp;Humidity;BMP_temperature;BMP_pressure;BME280_temperature;BME280_humidity;BME280_pressure;Samples;Min_cycle;Max_cycle;Signal;HPM_P1;HPM_P2
2021/06/18 00:02:44;;;;;;;4.13;3.23;;;;;;;19.51;100.00;98784.28;10256266;29;20182;-83
2021/06/18 00:08:03;;;;;;;7.10;4.07;;;;;;;19.38;100.00;98778.09;10256341;29;20202;-84
2021/06/18 00:13:22;;;;;;;4.40;4.00;;;;;;;19.31;100.00;98786.75;10256171;28;20187;-84
2021/06/18 00:18:42;;;;;;;4.37;3.90;;;;;;;18.99;100.00;98784.53;10256434;29;20544;-84
2021/06/18 00:24:02;;;;;;;4.60;4.10;;;;;;;18.78;100.00;98779.84;10257515;29;20229;-85
2021/06/18 00:29:21;;;;;;;7.03;4.60;;;;;;;18.66;100.00;98780.72;10215725;29;20661;-85
2021/06/18 00:34:40;;;;;;;7.03;4.20;;;;;;;18.61;100.00;98781.34;10221335;29;20198;-86
2021/06/18 00:39:59;;;;;;;3.03;2.83;;;;;;;18.67;100.00;98773.94;10254804;29;20178;-86
2021/06/18 00:45:18;;;;;;;4.37;3.73;;;;;;;18.64;100.00;98780.44;10254376;28;20665;-86
2021/06/18 00:50:38;;;;;;;4.47;3.53;;;;;;;18.74;100.00;98784.78;10254232;29;20222;-84
2021/06/18 00:55:57;;;;;;;3.80;3.40;;;;;;;18.62;100.00;98782.13;10255273;29;20179;-85
2021/06/18 01:01:16;;;;;;;3.20;2.90;;;;;;;18.60;100.00;98776.25;10253989;29;20218;-85
2021/06/18 01:06:37;;;;;;;5.37;4.03;;;;;;;18.52;100.00;98778.53;10255985;29;20266;-85
2021/06/18 01:12:09;;;;;;;4.63;3.47;;;;;;;18.31;100.00;98767.47;10256481;29;20633;-85
2021/06/18 01:17:41;;;;;;;4.80;4.30;;;;;;;18.36;100.00;98763.31;10254164;29;20179;-86
2021/06/18 01:23:04;;;;;;;8.77;3.90;;;;;;;18.18;100.00;98763.19;10256029;28;20175;-87
2021/06/18 01:28:52;;;;;;;3.80;3.50;;;;;;;17.86;100.00;98758.88;10256627;29;20214;-86
2021/06/18 01:34:16;;;;;;;3.63;3.30;;;;;;;17.77;100.00;98760.81;10254708;29;20271;-85
2021/06/18 01:39:35;;;;;;;3.40;3.10;;;;;;;17.79;100.00;98764.72;10215488;29;20180;-85
2021/06/18 01:44:56;;;;;;;5.40;4.40;;;;;;;17.68;100.00;98760.78;10219857;29;20203;-86
2021/06/18 01:50:19;;;;;;;3.33;3.03;;;;;;;17.77;100.00;98755.22;10255123;29;20238;-84
2021/06/18 01:55:40;;;;;;;3.70;3.40;;;;;;;17.39;100.00;98765.03;10255134;29;20191;-85
2021/06/18 02:01:00;;;;;;;5.37;4.00;;;;;;;17.30;100.00;98762.19;10252957;29;20262;-86
2021/06/18 02:06:26;;;;;;;7.70;4.60;;;;;;;17.25;100.00;98763.50;10254717;29;20194;-85
2021/06/18 02:11:45;;;;;;;4.30;3.90;;;;;;;17.26;100.00;98756.72;10255839;29;20211;-83
2021/06/18 02:17:06;;;;;;;3.57;3.20;;;;;;;17.18;100.00;98771.31;10213773;29;20175;-85
2021/06/18 02:22:26;;;;;;;6.27;4.20;;;;;;;17.19;100.00;98775.66;10220694;29;20182;-86
2021/06/18 02:27:46;;;;;;;4.97;4.07;;;;;;;17.18;100.00;98780.44;10256126;29;20800;-86
2021/06/18 02:33:11;;;;;;;3.80;3.50;;;;;;;16.97;100.00;98788.72;10251157;29;20187;-84
2021/06/18 02:38:30;;;;;;;4.53;4.10;;;;;;;16.98;100.00;98776.38;10257769;28;20175;-84
2021/06/18 02:43:50;;;;;;;3.60;3.30;;;;;;;17.00;100.00;98785.81;10259116;28;20206;-86
2021/06/18 02:49:12;;;;;;;5.33;3.57;;;;;;;16.95;100.00;98793.94;10256701;29;20230;-86
2021/06/18 02:54:44;;;;;;;4.47;3.93;;;;;;;16.94;100.00;98786.84;10258803;29;20582;-86
2021/06/18 03:00:11;;;;;;;7.37;3.93;;;;;;;16.95;100.00;98789.19;10257787;29;20214;-85
2021/06/18 03:05:30;;;;;;;4.17;3.87;;;;;;;17.05;100.00;98790.81;10258462;29;20191;-85
2021/06/18 03:10:53;;;;;;;4.20;3.50;;;;;;;17.06;100.00;98794.38;10257094;29;20210;-84
2021/06/18 03:16:12;;;;;;;3.87;3.47;;;;;;;16.81;100.00;98800.75;10257101;29;20190;-84
2021/06/18 03:21:35;;;;;;;3.50;3.23;;;;;;;16.77;100.00;98806.88;10258222;29;20175;-84
2021/06/18 03:26:54;;;;;;;3.93;3.63;;;;;;;16.73;100.00;98809.78;10257791;29;20261;-84
2021/06/18 03:32:14;;;;;;;7.00;3.77;;;;;;;16.83;100.00;98806.66;10256149;29;20261;-86
2021/06/18 03:37:35;;;;;;;4.80;3.87;;;;;;;16.93;100.00;98808.28;10257529;29;20545;-84
2021/06/18 03:42:54;;;;;;;4.10;3.67;;;;;;;17.05;100.00;98807.47;10255975;29;20214;-84
2021/06/18 03:48:16;;;;;;;5.17;4.23;;;;;;;16.92;100.00;98815.06;10255486;28;20257;-84
2021/06/18 03:53:36;;;;;;;4.87;4.23;;;;;;;16.80;100.00;98809.53;10255645;29;20222;-83
2021/06/18 03:58:57;;;;;;;6.13;4.17;;;;;;;16.71;100.00;98812.22;10256663;29;20179;-83
2021/06/18 04:04:18;;;;;;;4.33;3.93;;;;;;;16.41;100.00;98815.56;10253977;29;20191;-83
2021/06/18 04:09:38;;;;;;;4.27;3.67;;;;;;;16.34;100.00;98812.22;10254889;29;20226;-83
2021/06/18 04:15:00;;;;;;;8.20;3.50;;;;;;;16.44;100.00;98809.13;10253639;29;20187;-83
2021/06/18 04:20:21;;;;;;;4.83;3.60;;;;;;;16.66;100.00;98809.22;10255804;29;20182;-83
2021/06/18 04:25:40;;;;;;;4.03;3.63;;;;;;;16.75;100.00;98812.09;10255426;29;20637;-83
2021/06/18 04:30:59;;;;;;;5.50;3.70;;;;;;;16.81;100.00;98811.88;10253288;29;20207;-84
2021/06/18 04:36:19;;;;;;;5.63;3.87;;;;;;;17.07;100.00;98809.81;10255329;29;20543;-84
2021/06/18 04:41:39;;;;;;;6.27;3.60;;;;;;;17.30;100.00;98795.53;10254404;28;20211;-85
2021/06/18 04:46:58;;;;;;;6.33;4.40;;;;;;;17.58;100.00;98797.31;10252606;28;20190;-82
2021/06/18 04:52:17;;;;;;;5.17;3.67;;;;;;;17.94;100.00;98804.69;10253683;29;20183;-83
2021/06/18 04:57:36;;;;;;;4.57;3.80;;;;;;;18.28;100.00;98812.16;10215055;29;20176;-84
2021/06/18 05:02:56;;;;;;;7.03;4.30;;;;;;;18.58;100.00;98814.94;10219453;29;20282;-83
2021/06/18 05:08:15;;;;;;;5.77;4.33;;;;;;;18.92;100.00;98814.72;10254227;29;20214;-84
2021/06/18 05:13:34;;;;;;;5.60;4.20;;;;;;;19.34;100.00;98808.16;10253990;29;20178;-84
2021/06/18 05:18:53;;;;;;;5.67;4.80;;;;;;;19.80;100.00;98806.91;10254710;29;20183;-83
2021/06/18 05:24:12;;;;;;;7.63;5.10;;;;;;;20.23;100.00;98819.25;10254658;29;20641;-84
2021/06/18 05:29:31;;;;;;;5.20;4.80;;;;;;;20.70;100.00;98822.19;10254690;29;20211;-84
2021/06/18 05:34:50;;;;;;;6.73;6.03;;;;;;;21.10;100.00;98819.81;10237455;29;20578;-84
2021/06/18 05:40:10;;;;;;;9.70;6.00;;;;;;;21.56;100.00;98832.28;10283139;28;20194;-83
2021/06/18 05:45:33;;;;;;;6.23;5.63;;;;;;;21.93;100.00;98845.47;10279888;29;20183;-84
2021/06/18 05:50:52;;;;;;;6.93;6.23;;;;;;;22.30;100.00;98850.28;10274034;29;20234;-84
2021/06/18 05:56:11;;;;;;;12.67;8.67;;;;;;;22.74;100.00;98848.22;10278092;29;20198;-84
2021/06/18 06:01:30;;;;;;;10.90;6.90;;;;;;;23.05;100.00;98851.28;10278929;29;20250;-85
2021/06/18 06:06:49;;;;;;;8.43;6.97;;;;;;;23.48;100.00;98854.69;10276023;29;20536;-84
2021/06/18 06:12:08;;;;;;;6.30;5.70;;;;;;;23.89;96.55;98850.63;10263654;28;20226;-84
2021/06/18 06:17:27;;;;;;;10.37;7.90;;;;;;;24.27;91.22;98839.78;10261225;29;20225;-86
2021/06/18 06:22:46;;;;;;;10.07;6.43;;;;;;;24.60;89.43;98833.72;10263302;29;20186;-85
2021/06/18 06:28:06;;;;;;;8.20;6.93;;;;;;;24.96;86.74;98831.69;10262809;29;20589;-85
2021/06/18 06:33:25;;;;;;;9.73;7.53;;;;;;;25.21;85.35;98822.38;10259883;29;20226;-87
2021/06/18 06:38:44;;;;;;;8.97;7.07;;;;;;;25.50;67.05;98809.97;10270299;29;20210;-84
2021/06/18 06:44:04;;;;;;;9.10;6.70;;;;;;;26.05;64.87;98808.13;10262594;29;20183;-85
2021/06/18 06:49:25;;;;;;;7.27;6.50;;;;;;;26.45;65.01;98807.69;10260939;29;20226;-87
2021/06/18 06:54:44;;;;;;;6.70;6.13;;;;;;;26.78;61.15;98814.09;10265151;29;20198;-84
2021/06/18 07:00:07;;;;;;;7.37;6.63;;;;;;;26.80;59.74;98814.34;10264448;29;20175;-86
2021/06/18 07:05:26;;;;;;;6.80;6.20;;;;;;;27.18;60.26;98822.78;10258774;29;20626;-85
2021/06/18 07:10:46;;;;;;;6.80;6.10;;;;;;;27.42;57.29;98831.44;10256986;29;20609;-86
2021/06/18 07:16:05;;;;;;;6.53;5.83;;;;;;;27.65;56.90;98830.91;10257146;29;20187;-87
2021/06/18 07:21:24;;;;;;;7.70;6.23;;;;;;;28.11;55.40;98833.72;10279584;28;20170;-82
2021/06/18 07:26:43;;;;;;;6.70;6.10;;;;;;;28.53;54.46;98839.63;10281020;29;20587;-82
2021/06/18 07:32:03;;;;;;;6.87;6.30;;;;;;;28.60;52.80;98849.63;10280019;29;20370;-84
2021/06/18 07:37:22;;;;;;;7.20;6.50;;;;;;;28.75;52.13;98850.81;10283811;29;20179;-84
2021/06/18 07:42:42;;;;;;;6.83;6.10;;;;;;;29.36;53.09;98839.69;10279846;29;20183;-84
2021/06/18 07:48:02;;;;;;;7.67;5.90;;;;;;;29.89;49.81;98833.09;10276899;29;20230;-84
2021/06/18 07:53:21;;;;;;;6.87;6.13;;;;;;;30.65;50.59;98832.03;10278528;29;20634;-84
2021/06/18 07:58:40;;;;;;;7.90;7.10;;;;;;;31.44;47.23;98823.13;10289797;29;20178;-83
2021/06/18 08:03:59;;;;;;;6.33;5.73;;;;;;;31.73;44.75;98827.72;10278863;29;20186;-83
2021/06/18 08:09:18;;;;;;;7.90;6.00;;;;;;;32.14;45.79;98828.66;10280075;29;20234;-83
2021/06/18 08:14:37;;;;;;;8.43;7.67;;;;;;;32.53;45.11;98817.13;10287708;29;20245;-82
2021/06/18 08:19:56;;;;;;;6.50;6.00;;;;;;;32.84;43.21;98819.72;10285522;29;20175;-82
2021/06/18 08:25:15;;;;;;;7.37;6.60;;;;;;;33.32;40.92;98821.84;10290587;29;20186;-83
2021/06/18 08:30:34;;;;;;;7.13;6.47;;;;;;;33.35;42.54;98820.72;10270807;29;20210;-85
2021/06/18 08:35:53;;;;;;;6.87;6.20;;;;;;;33.74;39.30;98811.84;10258842;28;20190;-84
2021/06/18 08:41:12;;;;;;;6.80;6.20;;;;;;;34.16;40.16;98822.53;10264888;29;20205;-84
2021/06/18 08:46:31;;;;;;;8.10;7.30;;;;;;;34.00;38.92;98825.88;10263365;29;20190;-84
2021/06/18 08:51:57;;;;;;;7.97;6.40;;;;;;;34.15;37.68;98829.59;10258722;29;20222;-84
2021/06/18 08:57:22;;;;;;;6.67;6.10;;;;;;;34.13;37.62;98823.66;10252033;28;20186;-84
2021/06/18 09:02:41;;;;;;;6.80;6.07;;;;;;;34.60;38.75;98824.78;10263570;29;20182;-84
2021/06/18 09:08:03;;;;;;;6.90;6.40;;;;;;;35.69;36.56;98833.72;10267021;29;20222;-83
2021/06/18 09:13:30;;;;;;;8.00;7.30;;;;;;;35.88;34.63;98837.69;10260511;29;20202;-84
2021/06/18 09:18:49;;;;;;;6.70;6.10;;;;;;;34.97;36.35;98831.88;10256952;29;20520;-84
2021/06/18 09:24:08;;;;;;;7.40;6.70;;;;;;;33.99;40.42;98827.97;10263589;29;20186;-84
2021/06/18 09:29:27;;;;;;;8.43;7.53;;;;;;;32.85;40.85;98838.34;10259531;29;20202;-83
2021/06/18 09:35:02;;;;;;;8.67;7.87;;;;;;;34.13;41.41;98834.34;10255519;29;20570;-84
2021/06/18 09:40:23;;;;;;;8.20;7.50;;;;;;;33.16;40.90;98845.84;10267112;29;20202;-84
2021/06/18 09:45:43;;;;;;;7.83;7.07;;;;;;;32.98;39.55;98837.50;10271071;28;20186;-84
2021/06/18 09:51:02;;;;;;;8.40;7.40;;;;;;;33.95;40.33;98826.81;10270622;29;20313;-83
2021/06/18 09:56:21;;;;;;;8.20;7.40;;;;;;;34.82;35.98;98828.97;10274997;29;20249;-83
2021/06/18 10:01:40;;;;;;;6.30;5.70;;;;;;;36.41;32.98;98818.94;10226094;29;20546;-83
2021/06/18 10:06:59;;;;;;;7.13;6.53;;;;;;;36.15;32.61;98815.84;10242238;29;20185;-83
2021/06/18 10:12:19;;;;;;;6.70;6.10;;;;;;;36.94;29.84;98810.81;10272156;29;20193;-83
2021/06/18 10:17:41;;;;;;;6.30;5.70;;;;;;;36.98;30.54;98817.66;10265194;29;20190;-84
2021/06/18 10:23:13;;;;;;;6.50;5.83;;;;;;;37.32;32.08;98812.00;10270565;29;20190;-83
2021/06/18 10:28:34;;;;;;;6.40;5.80;;;;;;;38.48;29.07;98811.03;10277327;29;20206;-83
2021/06/18 10:34:08;;;;;;;6.50;6.00;;;;;;;38.17;28.70;98821.38;10283457;29;20584;-84
2021/06/18 10:39:29;;;;;;;6.50;6.00;;;;;;;38.79;30.40;98807.13;10271088;29;20206;-84
2021/06/18 10:44:50;;;;;;;5.80;5.30;;;;;;;39.57;29.50;98798.91;10271127;29;20170;-84
2021/06/18 10:50:09;;;;;;;6.33;5.83;;;;;;;40.44;26.55;98791.16;10281992;29;20696;-83
2021/06/18 10:55:47;;;;;;;6.30;5.82;;;;;;;39.98;28.14;98798.47;10268880;28;20190;-84
2021/06/18 11:01:32;;;;;;;5.70;5.30;;;;;;;40.41;26.56;98806.78;10274436;29;20242;-84
2021/06/18 11:06:51;;;;;;;6.15;5.65;;;;;;;40.43;25.18;98806.94;10270096;29;20186;-85
2021/06/18 11:12:26;;;;;;;5.80;5.40;;;;;;;38.65;27.79;98800.25;10266647;29;20552;-84
2021/06/18 11:18:13;;;;;;;4.97;4.57;;;;;;;39.31;25.61;98805.50;10262664;29;20194;-84
2021/06/18 11:23:35;;;;;;;3.85;3.65;;;;;;;39.50;22.07;98796.94;10262626;29;20640;-85
2021/06/18 11:28:54;;;;;;;3.90;3.70;;;;;;;39.74;22.66;98793.75;10263842;29;20202;-84
2021/06/18 11:34:25;;;;;;;4.10;3.88;;;;;;;40.97;22.01;98784.88;10263745;29;20621;-84
2021/06/18 11:39:44;;;;;;;5.10;4.70;;;;;;;41.72;23.58;98782.91;10270428;29;20702;-84
2021/06/18 11:45:04;;;;;;;4.60;4.30;;;;;;;42.53;23.18;98776.84;10278277;29;20186;-84
2021/06/18 11:50:36;;;;;;;5.82;5.35;;;;;;;42.47;23.62;98767.78;10277315;29;20261;-84
2021/06/18 11:56:02;;;;;;;5.82;5.43;;;;;;;41.37;24.42;98767.50;10256286;29;20183;-78
2021/06/18 12:01:24;;;;;;;5.93;5.25;;;;;;;40.99;24.43;98767.69;10254819;29;20584;-78
2021/06/18 12:06:43;;;;;;;5.85;5.45;;;;;;;41.74;24.12;98762.84;10255712;28;20209;-81
2021/06/18 12:12:03;;;;;;;5.28;4.97;;;;;;;41.46;24.41;98761.66;10218007;29;20226;-80
2021/06/18 12:17:22;;;;;;;6.18;5.57;;;;;;;41.87;24.09;98746.41;10217733;29;20186;-81
2021/06/18 12:22:41;;;;;;;5.80;5.40;;;;;;;42.37;23.78;98743.97;10255318;29;20257;-78
2021/06/18 12:28:03;;;;;;;6.78;6.07;;;;;;;42.59;23.17;98738.84;10254781;29;20206;-78
2021/06/18 12:33:22;;;;;;;4.82;4.53;;;;;;;41.90;21.93;98747.31;10243043;29;20268;-79
2021/06/18 12:38:46;;;;;;;5.47;5.07;;;;;;;39.62;24.69;98738.09;10254575;28;20206;-79
2021/06/18 12:44:07;;;;;;;4.75;4.45;;;;;;;40.40;25.09;98738.94;10253923;29;20641;-78
2021/06/18 12:49:29;;;;;;;4.78;4.18;;;;;;;39.59;22.48;98738.56;10251613;29;20226;-82
2021/06/18 12:54:49;;;;;;;5.10;4.60;;;;;;;37.27;25.82;98729.75;10253427;29;20182;-80
2021/06/18 13:00:10;;;;;;;5.57;5.17;;;;;;;38.77;25.72;98735.03;10251640;29;20178;-78
2021/06/18 13:05:29;;;;;;;5.90;5.13;;;;;;;39.05;23.79;98719.22;10252600;29;20649;-82
2021/06/18 13:10:51;;;;;;;5.17;4.77;;;;;;;38.71;24.96;98714.44;10252344;29;20249;-78
2021/06/18 13:16:16;;;;;;;5.20;4.80;;;;;;;39.14;23.86;98713.50;10251518;29;20179;-78
2021/06/18 13:21:51;;;;;;;5.00;4.60;;;;;;;41.49;22.76;98716.31;10228647;29;20182;-79
2021/06/18 13:27:11;;;;;;;5.55;5.15;;;;;;;42.58;22.73;98706.25;10246823;29;20190;-77
2021/06/18 13:32:39;;;;;;;4.75;4.45;;;;;;;43.19;21.57;98712.28;10250846;29;20178;-78
2021/06/18 13:38:04;;;;;;;4.57;4.28;;;;;;;39.65;23.16;98718.88;10268466;28;20210;-77
2021/06/18 13:43:22;;;;;;;5.47;5.00;;;;;;;39.42;25.38;98712.75;10277655;28;20186;-78
2021/06/18 13:48:41;;;;;;;5.33;4.83;;;;;;;39.17;23.55;98706.56;10251497;29;20320;-79
2021/06/18 13:54:01;;;;;;;4.33;4.03;;;;;;;39.52;22.38;98705.69;10248090;29;20207;-78
2021/06/18 13:59:21;;;;;;;4.90;4.60;;;;;;;38.16;24.59;98701.28;10213303;29;20179;-77
2021/06/18 14:04:43;;;;;;;4.77;4.37;;;;;;;37.76;24.81;98695.16;10236499;29;20178;-83
2021/06/18 14:10:07;;;;;;;4.47;4.13;;;;;;;36.89;25.35;98697.06;10268518;29;20234;-82
2021/06/18 14:15:28;;;;;;;5.03;4.60;;;;;;;38.92;23.59;98685.88;10270118;29;20637;-83
2021/06/18 14:20:48;;;;;;;4.00;3.67;;;;;;;39.24;23.69;98676.88;10228184;29;20187;-84
2021/06/18 14:26:07;;;;;;;4.40;4.10;;;;;;;37.86;23.86;98675.88;10224506;29;20176;-84
2021/06/18 14:31:26;;;;;;;5.80;4.10;;;;;;;38.71;23.39;98673.44;10257103;28;20694;-84
2021/06/18 14:36:46;;;;;;;4.40;4.00;;;;;;;39.31;23.27;98668.06;10300804;28;20198;-85
2021/06/18 14:42:05;;;;;;;4.93;4.53;;;;;;;38.49;24.94;98672.41;10314083;28;20181;-83
2021/06/18 14:47:24;;;;;;;5.20;4.80;;;;;;;38.03;24.50;98667.94;10296979;28;20257;-84
2021/06/18 14:52:43;;;;;;;6.30;4.50;;;;;;;37.74;24.00;98664.13;10272896;29;20645;-84
2021/06/18 14:58:04;;;;;;;5.43;5.03;;;;;;;37.22;25.44;98670.50;10271559;29;20218;-84
2021/06/18 15:03:23;;;;;;;4.70;4.40;;;;;;;38.65;23.49;98655.72;10271434;29;20174;-83
2021/06/18 15:08:42;;;;;;;4.67;4.33;;;;;;;38.65;23.66;98655.72;10276744;29;20664;-82
2021/06/18 15:14:01;;;;;;;4.90;4.33;;;;;;;38.38;23.27;98652.09;10274123;29;20182;-83
2021/06/18 15:19:20;;;;;;;9.33;4.37;;;;;;;39.53;22.63;98648.84;10271807;29;20182;-84
2021/06/18 15:24:39;;;;;;;4.53;4.13;;;;;;;41.15;20.82;98636.03;10274281;29;20174;-83
2021/06/18 15:29:59;;;;;;;4.82;4.43;;;;;;;42.21;20.74;98630.13;10269909;29;20205;-84
2021/06/18 15:35:18;;;;;;;4.68;4.30;;;;;;;41.77;20.75;98638.06;10269907;28;20197;-83
2021/06/18 15:40:37;;;;;;;4.45;4.22;;;;;;;41.07;21.28;98647.03;10289590;28;20181;-84
2021/06/18 15:45:56;;;;;;;6.47;4.35;;;;;;;39.08;21.83;98632.47;10296535;28;20186;-84
2021/06/18 15:51:17;;;;;;;4.53;4.22;;;;;;;39.65;22.58;98632.47;10289748;28;20225;-84
2021/06/18 15:56:38;;;;;;;4.43;4.20;;;;;;;38.63;23.71;98627.53;10309425;28;20245;-83
2021/06/18 16:01:57;;;;;;;4.03;3.83;;;;;;;39.54;21.79;98621.56;10327132;28;20220;-83
2021/06/18 16:07:16;;;;;;;4.30;4.00;;;;;;;37.87;24.65;98622.81;10309386;28;20225;-83
2021/06/18 16:12:47;;;;;;;5.10;4.70;;;;;;;38.63;22.80;98621.78;10280607;28;20198;-83
2021/06/18 16:18:06;;;;;;;5.43;4.33;;;;;;;38.24;23.29;98624.34;10275004;29;20186;-84
2021/06/18 16:23:26;;;;;;;3.73;3.53;;;;;;;37.03;25.11;98626.56;10265612;28;20186;-84
2021/06/18 16:28:46;;;;;;;4.50;4.17;;;;;;;36.44;26.54;98622.16;10303624;28;20213;-83
2021/06/18 16:34:05;;;;;;;4.83;4.53;;;;;;;37.32;24.55;98619.69;10306228;28;20666;-85
2021/06/18 16:39:25;;;;;;;5.00;4.60;;;;;;;38.63;23.46;98610.28;10278660;28;20182;-84
2021/06/18 16:44:44;;;;;;;4.90;4.60;;;;;;;39.39;23.35;98602.44;10266916;29;20170;-83
2021/06/18 16:50:07;;;;;;;4.30;3.83;;;;;;;39.31;23.39;98603.97;10266254;29;20241;-83
2021/06/18 16:55:26;;;;;;;4.50;4.20;;;;;;;39.62;23.64;98604.84;10257846;28;20179;-85
2021/06/18 17:00:45;;;;;;;5.23;4.57;;;;;;;39.86;22.55;98612.38;10256890;29;20182;-84
2021/06/18 17:06:06;;;;;;;5.20;4.80;;;;;;;39.17;23.50;98613.69;10256714;28;20178;-84
2021/06/18 17:11:31;;;;;;;5.07;4.53;;;;;;;38.92;24.45;98611.09;10264986;29;20221;-84
2021/06/18 17:16:50;;;;;;;4.87;4.47;;;;;;;38.60;25.82;98616.44;10265356;29;20170;-84
2021/06/18 17:22:09;;;;;;;6.07;5.20;;;;;;;38.20;24.47;98615.44;10268329;29;20185;-85
2021/06/18 17:27:28;;;;;;;5.20;4.80;;;;;;;37.41;25.59;98616.13;10274069;29;20178;-85
2021/06/18 17:32:48;;;;;;;5.97;5.57;;;;;;;37.23;26.32;98623.25;10273539;29;20182;-84
2021/06/18 17:38:08;;;;;;;5.63;5.17;;;;;;;37.05;29.11;98633.22;10268530;29;20194;-83
2021/06/18 17:43:28;;;;;;;5.03;4.63;;;;;;;35.63;29.50;98642.16;10260073;29;20186;-84
2021/06/18 17:48:47;;;;;;;5.70;5.30;;;;;;;35.33;31.54;98639.41;10258587;29;20233;-85
2021/06/18 17:54:06;;;;;;;9.23;4.97;;;;;;;34.77;32.33;98633.47;10270434;28;20189;-84
2021/06/18 17:59:26;;;;;;;5.77;5.20;;;;;;;34.20;34.76;98640.13;10235084;29;20182;-84
2021/06/18 18:04:45;;;;;;;7.90;5.53;;;;;;;33.86;36.31;98636.09;10240249;29;20178;-84
2021/06/18 18:10:06;;;;;;;5.50;4.97;;;;;;;33.60;38.45;98625.72;10266814;29;20214;-83
2021/06/18 18:15:25;;;;;;;5.20;4.70;;;;;;;33.02;39.79;98636.28;10274038;29;20268;-83
2021/06/18 18:20:46;;;;;;;5.40;4.90;;;;;;;32.52;40.40;98642.59;10280993;29;20181;-85
2021/06/18 18:26:05;;;;;;;4.90;4.50;;;;;;;32.26;41.54;98653.41;10280221;29;20175;-83
2021/06/18 18:31:24;;;;;;;7.30;6.60;;;;;;;31.93;43.94;98648.50;10278331;29;20211;-83
2021/06/18 18:36:43;;;;;;;8.93;7.70;;;;;;;31.81;45.08;98647.28;10282755;29;20222;-83
2021/06/18 18:42:03;;;;;;;6.00;5.47;;;;;;;31.37;45.63;98647.50;10284943;29;20183;-84
2021/06/18 18:47:24;;;;;;;5.93;5.33;;;;;;;30.95;44.46;98650.69;10284357;29;20222;-83
2021/06/18 18:52:43;;;;;;;5.33;4.93;;;;;;;30.58;45.38;98652.97;10287675;29;20202;-83
2021/06/18 18:58:05;;;;;;;5.80;5.30;;;;;;;30.22;46.87;98648.97;10291447;29;20178;-84
2021/06/18 19:03:24;;;;;;;6.50;5.90;;;;;;;29.92;52.91;98659.81;10292074;29;20183;-82
2021/06/18 19:08:43;;;;;;;6.63;5.87;;;;;;;29.53;49.85;98661.66;10289675;29;20206;-84
2021/06/18 19:14:02;;;;;;;6.07;5.57;;;;;;;29.13;52.21;98665.53;10293979;29;20178;-83
2021/06/18 19:19:22;;;;;;;6.10;5.60;;;;;;;28.86;53.46;98660.97;10283554;28;20179;-85
2021/06/18 19:24:41;;;;;;;5.90;5.30;;;;;;;28.91;54.09;98660.16;10269954;29;20214;-84
2021/06/18 19:30:01;;;;;;;6.13;5.53;;;;;;;28.55;54.59;98655.88;10262822;29;20210;-86
2021/06/18 19:35:20;;;;;;;6.53;5.60;;;;;;;28.31;56.30;98658.72;10269338;29;20203;-84
2021/06/18 19:40:39;;;;;;;6.50;5.90;;;;;;;28.09;60.04;98668.66;10271556;29;20167;-83
2021/06/18 19:45:59;;;;;;;4.27;4.00;;;;;;;27.90;61.84;98659.28;10267711;29;20191;-83
2021/06/18 19:51:20;;;;;;;6.73;5.80;;;;;;;27.58;59.97;98678.75;10268374;29;20600;-85
2021/06/18 19:56:41;;;;;;;7.33;5.83;;;;;;;27.24;61.22;98678.72;10270174;29;20532;-83
2021/06/18 20:02:00;;;;;;;5.63;5.13;;;;;;;26.94;61.76;98677.78;10266606;29;20179;-85
2021/06/18 20:07:20;;;;;;;8.80;5.67;;;;;;;26.89;63.35;98682.19;10272900;29;20186;-85
2021/06/18 20:12:40;;;;;;;5.80;5.30;;;;;;;26.88;62.12;98679.84;10263541;29;20199;-83
2021/06/18 20:18:02;;;;;;;5.63;5.10;;;;;;;26.80;62.22;98673.22;10262957;29;20178;-82
2021/06/18 20:23:22;;;;;;;5.73;5.33;;;;;;;26.62;62.31;98673.78;10276306;29;20179;-82
2021/06/18 20:28:40;;;;;;;7.80;5.70;;;;;;;26.15;65.84;98676.91;10261655;28;20218;-86
2021/06/18 20:34:00;;;;;;;6.37;5.00;;;;;;;25.99;68.06;98681.25;10254926;29;20191;-84
2021/06/18 20:39:19;;;;;;;8.47;5.40;;;;;;;25.64;69.98;98679.41;10254854;29;20178;-82
2021/06/18 20:44:38;;;;;;;7.20;6.23;;;;;;;25.35;71.93;98697.53;10268714;28;20183;-85
2021/06/18 20:49:57;;;;;;;5.83;5.33;;;;;;;25.11;72.75;98700.00;10255014;29;20242;-82
2021/06/18 20:55:19;;;;;;;5.43;4.50;;;;;;;24.98;72.95;98712.97;10255912;29;20178;-83
2021/06/18 21:00:38;;;;;;;5.13;4.63;;;;;;;24.70;73.02;98714.84;10254990;29;20182;-84
2021/06/18 21:05:57;;;;;;;8.57;5.10;;;;;;;24.63;74.28;98726.59;10256929;29;20187;-83
2021/06/18 21:11:15;;;;;;;6.60;5.43;;;;;;;24.51;75.30;98744.69;10256286;29;20210;-82
2021/06/18 21:16:35;;;;;;;8.00;5.00;;;;;;;24.14;78.47;98754.31;10256579;29;20183;-83
2021/06/18 21:21:53;;;;;;;8.23;5.33;;;;;;;23.86;79.12;98758.13;10262533;29;20186;-82
2021/06/18 21:27:15;;;;;;;12.63;6.53;;;;;;;23.36;80.02;98768.78;10262084;29;20621;-84
2021/06/18 21:32:35;;;;;;;6.10;4.90;;;;;;;23.45;78.35;98765.81;10257441;28;20186;-83
2021/06/18 21:37:54;;;;;;;5.63;4.43;;;;;;;23.62;76.47;98752.75;10257459;29;20266;-83
2021/06/18 21:43:13;;;;;;;4.30;4.00;;;;;;;23.61;76.03;98762.44;10258029;29;20186;-84
2021/06/18 21:48:34;;;;;;;5.27;4.57;;;;;;;23.63;76.73;98767.53;10256441;29;20226;-84
2021/06/18 21:54:00;;;;;;;9.63;4.40;;;;;;;23.59;77.45;98759.34;10257480;29;20183;-87
2021/06/18 21:59:20;;;;;;;6.70;5.13;;;;;;;23.66;76.93;98752.53;10256760;29;20190;-83
2021/06/18 22:04:39;;;;;;;5.43;5.00;;;;;;;23.60;77.77;98762.94;10257288;29;20179;-84
2021/06/18 22:09:59;;;;;;;5.87;4.40;;;;;;;23.42;78.56;98771.66;10261237;29;20199;-83
2021/06/18 22:15:18;;;;;;;8.70;4.20;;;;;;;23.43;78.46;98773.97;10259067;29;20182;-84
2021/06/18 22:20:41;;;;;;;8.67;5.83;;;;;;;23.49;78.22;98769.19;10262559;29;20171;-83
2021/06/18 22:26:02;;;;;;;5.07;4.67;;;;;;;23.42;79.28;98763.22;10264078;29;20801;-83
2021/06/18 22:31:21;;;;;;;5.87;5.23;;;;;;;23.01;83.31;98760.91;10263914;29;20246;-83
2021/06/18 22:36:40;;;;;;;4.80;4.40;;;;;;;22.96;81.89;98750.34;10264191;28;20206;-83
2021/06/18 22:41:59;;;;;;;5.00;4.60;;;;;;;23.03;81.29;98755.56;10262820;29;20167;-83
2021/06/18 22:47:18;;;;;;;5.03;4.53;;;;;;;22.99;81.39;98750.16;10253652;29;20219;-85
2021/06/18 22:52:38;;;;;;;5.23;4.73;;;;;;;22.87;82.04;98742.06;10258118;28;20218;-84
2021/06/18 22:57:58;;;;;;;6.03;5.47;;;;;;;22.80;82.56;98746.09;10265406;29;20190;-84
2021/06/18 23:03:18;;;;;;;7.57;6.03;;;;;;;22.83;83.90;98747.13;10263628;29;20191;-85
2021/06/18 23:08:37;;;;;;;5.60;5.10;;;;;;;22.61;86.48;98744.78;10263781;29;20206;-84
2021/06/18 23:13:56;;;;;;;4.70;4.30;;;;;;;22.35;91.56;98748.72;10265108;29;20187;-85
2021/06/18 23:19:15;;;;;;;7.50;5.47;;;;;;;22.17;93.84;98754.50;10264170;29;20207;-84
2021/06/18 23:24:34;;;;;;;6.20;5.60;;;;;;;22.12;94.73;98752.38;10264538;29;20182;-87
2021/06/18 23:29:53;;;;;;;8.57;5.60;;;;;;;22.01;94.60;98768.25;10266481;29;20203;-87
2021/06/18 23:35:13;;;;;;;5.30;4.63;;;;;;;21.59;100.00;98806.91;10270473;28;20210;-85
2021/06/18 23:40:35;;;;;;;6.47;4.93;;;;;;;21.32;100.00;98793.09;10281330;29;20163;-84
2021/06/18 23:45:53;;;;;;;5.80;5.20;;;;;;;21.51;100.00;98774.91;10298174;29;20234;-84
2021/06/18 23:51:13;;;;;;;7.10;5.13;;;;;;;21.67;100.00;98776.50;10299242;29;20282;-84
2021/06/18 23:56:31;;;;;;;7.83;4.77;;;;;;;21.76;100.00;98777.97;10294568;29;20187;-84
